Kentville, Canada
Current Conditions -  °F | °C
As of 11:00 PM on Friday 21 Nov 2014 (Local Time) from CYZX Reporting Station
Scattered Clouds Scattered Clouds  
Wind Chill: 13°   Ceiling: Unl
Heat Index: 27°   Visibility: 15mi
Dew Point: 14°   Wind: 18mph
Humidity: 59%   Direction: 300°WNW
Pressure: 30.1"   Gusts: 29mph
Location:  45.08°N, 64.49°W
Report Text: CYZX 220300Z 30016G25KT 15SM SCT038 M03/M10 A3010 RMK SC3 WNDY HILL 33018G32KT SLP194
Loading
Personal Weather Stations






























Interactive Weather Map New forecast layout! Learn more

10-Day Weather Forecast

Advertisements
Track Severe Weather on mobile